Time;durP1;ratioP1;P1;durP2;ratioP2;P2;SDS_P1;SDS_P2;PMS_P1;PMS_P2;Temp;Humidity;BMP_temperature;BMP_pressure;BME280_temperature;BME280_humidity;BME280_pressure;Samples;Min_cycle;Max_cycle;Signal;HPM_P1;HPM_P2
2023/08/05 00:01:57;;;;;;;5.47;3.20;;;16.50;99.90;;;;;;4068482;29;20083;-52
2023/08/05 00:03:59;;;;;;;5.47;3.55;;;16.50;99.90;;;;;;4068110;29;20100;-52
2023/08/05 00:06:01;;;;;;;5.07;3.50;;;16.40;99.90;;;;;;4067947;29;20048;-51
2023/08/05 00:08:03;;;;;;;8.13;4.18;;;16.40;99.90;;;;;;4068783;29;20044;-53
2023/08/05 00:10:06;;;;;;;9.73;4.05;;;16.40;99.90;;;;;;4068469;29;20527;-51
2023/08/05 00:12:09;;;;;;;10.25;3.90;;;16.40;99.90;;;;;;4068260;29;20048;-52
2023/08/05 00:14:11;;;;;;;5.63;3.33;;;16.30;99.90;;;;;;4068282;29;20048;-51
2023/08/05 00:16:14;;;;;;;7.60;4.22;;;16.30;99.90;;;;;;4067997;29;20131;-51
2023/08/05 00:18:17;;;;;;;7.18;4.15;;;16.30;99.90;;;;;;4068325;29;20131;-54
2023/08/05 00:20:19;;;;;;;6.13;3.65;;;16.30;99.90;;;;;;4068939;29;20099;-52
2023/08/05 00:22:22;;;;;;;6.57;4.20;;;16.30;99.90;;;;;;4068532;29;20054;-56
2023/08/05 00:24:23;;;;;;;8.05;4.43;;;16.20;99.90;;;;;;4070852;29;20056;-53
2023/08/05 00:26:26;;;;;;;6.22;4.13;;;16.20;99.90;;;;;;4068371;29;20126;-54
2023/08/05 00:28:28;;;;;;;7.38;4.13;;;16.20;99.90;;;;;;4068434;29;20104;-52
2023/08/05 00:30:30;;;;;;;5.47;3.80;;;16.20;99.90;;;;;;4067253;29;20048;-52
2023/08/05 00:32:34;;;;;;;7.13;3.95;;;16.10;99.90;;;;;;4067915;29;20048;-52
2023/08/05 00:34:37;;;;;;;6.97;3.72;;;16.10;99.90;;;;;;4068481;29;20095;-53
2023/08/05 00:36:40;;;;;;;8.10;4.00;;;16.10;99.90;;;;;;4067960;29;20056;-52
2023/08/05 00:38:42;;;;;;;6.88;4.40;;;16.10;99.90;;;;;;4068455;29;20060;-52
2023/08/05 00:40:44;;;;;;;7.32;4.07;;;16.10;99.90;;;;;;4068501;29;20055;-52
2023/08/05 00:42:47;;;;;;;8.23;4.25;;;16.10;99.90;;;;;;4068317;29;20048;-52
2023/08/05 00:44:49;;;;;;;7.63;4.93;;;16.10;99.90;;;;;;4068018;29;20056;-52
2023/08/05 00:46:52;;;;;;;8.68;4.53;;;16.10;99.90;;;;;;4067086;29;20131;-53
2023/08/05 00:48:54;;;;;;;5.78;3.85;;;16.00;99.90;;;;;;4068269;29;20095;-53
2023/08/05 00:50:59;;;;;;;7.43;4.40;;;16.00;99.90;;;;;;4068363;29;20048;-52
2023/08/05 00:53:01;;;;;;;6.72;4.20;;;16.00;99.90;;;;;;4068141;29;20075;-52
2023/08/05 00:55:04;;;;;;;8.88;4.25;;;16.00;99.90;;;;;;4066547;29;20072;-52
2023/08/05 00:57:07;;;;;;;9.32;4.13;;;16.00;99.90;;;;;;4067677;29;20066;-52
2023/08/05 00:59:10;;;;;;;8.07;4.13;;;16.00;99.90;;;;;;4066876;29;20052;-52
2023/08/05 01:01:12;;;;;;;9.60;4.35;;;16.00;99.90;;;;;;4067755;29;20409;-54
2023/08/05 01:03:15;;;;;;;8.68;4.20;;;16.00;99.90;;;;;;4068277;29;20458;-54
2023/08/05 01:05:20;;;;;;;8.60;4.40;;;16.00;99.90;;;;;;4067572;29;20447;-56
2023/08/05 01:07:24;;;;;;;6.03;3.75;;;16.10;99.90;;;;;;4067919;29;20052;-55
2023/08/05 01:09:27;;;;;;;6.75;4.10;;;16.00;99.90;;;;;;4068050;29;20052;-54
2023/08/05 01:11:29;;;;;;;6.88;3.80;;;16.00;99.90;;;;;;4067974;29;20075;-54
2023/08/05 01:13:31;;;;;;;7.72;3.50;;;16.00;99.90;;;;;;4068097;29;20131;-55
2023/08/05 01:15:33;;;;;;;5.55;3.60;;;16.00;99.90;;;;;;4066908;29;20059;-55
2023/08/05 01:17:36;;;;;;;5.38;4.00;;;16.00;99.90;;;;;;4066692;29;20044;-54
2023/08/05 01:19:39;;;;;;;6.38;3.70;;;16.00;99.90;;;;;;4067909;29;20044;-52
2023/08/05 01:21:48;;;;;;;9.75;3.53;;;16.10;99.90;;;;;;4067953;29;20052;-54
2023/08/05 01:24:02;;;;;;;8.68;3.85;;;16.00;99.90;;;;;;4068551;29;20052;-54
2023/08/05 01:26:09;;;;;;;7.90;4.10;;;16.00;99.90;;;;;;4070229;29;20052;-55
2023/08/05 01:28:12;;;;;;;6.82;3.80;;;16.00;99.90;;;;;;4070803;29;20079;-54
2023/08/05 01:30:14;;;;;;;7.18;3.90;;;15.90;99.90;;;;;;4070469;29;20044;-55
2023/08/05 01:32:19;;;;;;;7.95;4.13;;;15.90;99.90;;;;;;4070807;29;20071;-54
2023/08/05 01:34:21;;;;;;;7.78;3.80;;;15.90;99.90;;;;;;4070633;29;20411;-55
2023/08/05 01:36:24;;;;;;;9.15;4.25;;;15.90;99.90;;;;;;4070056;29;20120;-54
2023/08/05 01:38:26;;;;;;;6.30;3.83;;;15.90;99.90;;;;;;4070760;29;20044;-54
2023/08/05 01:40:28;;;;;;;11.20;4.15;;;15.80;99.90;;;;;;4069755;29;20063;-55
2023/08/05 01:42:31;;;;;;;9.10;3.65;;;15.90;99.90;;;;;;4069510;29;20151;-54
2023/08/05 01:44:34;;;;;;;5.70;3.63;;;15.80;99.90;;;;;;4070272;29;20048;-54
2023/08/05 01:46:36;;;;;;;8.10;4.00;;;15.90;99.90;;;;;;4068887;29;20048;-55
2023/08/05 01:48:38;;;;;;;9.52;4.22;;;15.80;99.90;;;;;;4070579;29;20079;-55
2023/08/05 01:50:40;;;;;;;5.47;3.55;;;15.90;99.90;;;;;;4070781;29;20123;-55
2023/08/05 01:52:42;;;;;;;10.77;3.63;;;15.90;99.90;;;;;;4070613;29;20152;-55
2023/08/05 01:54:44;;;;;;;5.53;3.20;;;15.90;99.90;;;;;;4070625;29;20052;-54
2023/08/05 01:56:46;;;;;;;8.90;4.05;;;15.90;99.90;;;;;;4069876;29;20048;-54
2023/08/05 01:58:51;;;;;;;6.05;3.40;;;15.90;99.90;;;;;;4070472;29;20056;-54
2023/08/05 02:00:53;;;;;;;4.28;2.97;;;16.00;99.90;;;;;;4070579;29;20052;-55
2023/08/05 02:02:55;;;;;;;5.55;3.40;;;15.90;99.90;;;;;;4070443;29;20467;-54
2023/08/05 02:04:58;;;;;;;8.98;3.53;;;15.90;99.90;;;;;;4070596;29;20182;-54
2023/08/05 02:07:00;;;;;;;6.15;3.55;;;16.00;99.90;;;;;;4069795;29;20504;-54
2023/08/05 02:09:02;;;;;;;9.13;3.10;;;16.00;99.90;;;;;;4070338;29;20391;-57
2023/08/05 02:11:05;;;;;;;6.53;3.20;;;15.90;99.90;;;;;;4073173;29;20052;-55
2023/08/05 02:13:07;;;;;;;9.00;3.65;;;16.00;99.90;;;;;;4070491;29;20138;-54
2023/08/05 02:15:11;;;;;;;10.85;3.00;;;16.00;99.90;;;;;;4069150;29;20147;-55
2023/08/05 02:17:13;;;;;;;8.70;3.33;;;16.00;99.90;;;;;;4069701;29;20250;-54
2023/08/05 02:19:15;;;;;;;5.25;3.22;;;16.00;99.90;;;;;;4070047;29;20103;-54
2023/08/05 02:21:17;;;;;;;11.13;3.65;;;16.00;99.90;;;;;;4070197;29;20052;-54
2023/08/05 02:23:19;;;;;;;6.53;2.83;;;16.00;99.90;;;;;;4070252;29;20119;-56
2023/08/05 02:25:21;;;;;;;5.50;3.13;;;16.00;99.90;;;;;;4069868;29;20059;-54
2023/08/05 02:27:24;;;;;;;6.80;3.15;;;16.00;99.90;;;;;;4069483;29;20517;-56
2023/08/05 02:29:26;;;;;;;7.13;3.08;;;16.00;99.90;;;;;;4069940;29;20369;-55
2023/08/05 02:31:29;;;;;;;7.75;3.25;;;16.00;99.90;;;;;;4069961;29;20052;-54
2023/08/05 02:33:31;;;;;;;6.00;3.13;;;16.00;99.90;;;;;;4070055;29;20518;-56
2023/08/05 02:35:33;;;;;;;6.30;3.03;;;16.00;99.90;;;;;;4069195;29;20060;-54
2023/08/05 02:37:35;;;;;;;5.95;3.17;;;16.00;99.90;;;;;;4069899;29;20048;-54
2023/08/05 02:39:39;;;;;;;8.38;3.63;;;16.10;99.90;;;;;;4069895;29;20502;-54
2023/08/05 02:41:41;;;;;;;5.47;3.08;;;16.10;99.90;;;;;;4069465;29;20428;-55
2023/08/05 02:43:43;;;;;;;9.13;3.33;;;16.10;99.90;;;;;;4069769;29;20470;-55
2023/08/05 02:45:52;;;;;;;5.53;2.85;;;16.10;99.90;;;;;;4067907;29;20054;-55
2023/08/05 02:47:55;;;;;;;6.88;3.22;;;16.10;99.90;;;;;;4069861;29;20048;-55
2023/08/05 02:49:57;;;;;;;6.03;3.10;;;16.00;99.90;;;;;;4069773;29;20541;-54
2023/08/05 02:51:59;;;;;;;5.82;3.00;;;16.00;99.90;;;;;;4069441;29;20082;-55
2023/08/05 02:54:02;;;;;;;4.97;3.30;;;16.00;99.90;;;;;;4069711;29;20045;-54
2023/08/05 02:56:04;;;;;;;8.93;3.25;;;16.00;99.90;;;;;;4068475;29;20060;-54
2023/08/05 02:58:06;;;;;;;9.52;3.60;;;16.00;99.90;;;;;;4069622;29;20051;-55
2023/08/05 03:00:09;;;;;;;6.13;3.20;;;16.10;99.90;;;;;;4069703;29;20541;-54
2023/08/05 03:02:12;;;;;;;9.37;3.53;;;16.10;99.90;;;;;;4069319;29;20527;-54
2023/08/05 03:04:15;;;;;;;6.25;3.47;;;16.10;99.90;;;;;;4069597;29;20062;-54
2023/08/05 03:06:18;;;;;;;6.95;3.10;;;16.20;99.90;;;;;;4068858;29;20434;-55
2023/08/05 03:08:19;;;;;;;8.88;3.20;;;16.10;99.90;;;;;;4069329;29;20051;-56
2023/08/05 03:10:21;;;;;;;7.65;4.00;;;16.10;99.90;;;;;;4069386;29;20056;-54
2023/08/05 03:12:23;;;;;;;6.40;2.72;;;16.10;99.90;;;;;;4068844;29;20127;-55
2023/08/05 03:14:26;;;;;;;9.50;3.55;;;16.10;99.90;;;;;;4069468;29;20123;-54
2023/08/05 03:16:28;;;;;;;7.43;3.13;;;16.10;99.90;;;;;;4068757;29;20056;-55
2023/08/05 03:18:30;;;;;;;6.70;2.83;;;16.00;99.90;;;;;;4069343;29;20048;-55
2023/08/05 03:20:34;;;;;;;7.43;3.10;;;16.00;99.90;;;;;;4069427;29;20049;-55
2023/08/05 03:22:36;;;;;;;5.28;3.15;;;16.00;99.90;;;;;;4069135;29;20111;-54
2023/08/05 03:24:38;;;;;;;12.75;3.50;;;16.00;99.90;;;;;;4069268;29;20056;-55
2023/08/05 03:26:40;;;;;;;4.80;2.92;;;16.00;99.90;;;;;;4068408;29;20058;-54
2023/08/05 03:28:42;;;;;;;7.18;3.10;;;16.00;99.90;;;;;;4068925;29;20048;-55
2023/08/05 03:30:44;;;;;;;5.95;3.22;;;16.00;99.90;;;;;;4069268;29;20060;-55
2023/08/05 03:32:47;;;;;;;7.65;3.60;;;16.00;99.90;;;;;;4067665;29;20048;-54
2023/08/05 03:34:50;;;;;;;4.43;2.90;;;15.90;99.90;;;;;;4068996;29;20055;-54
2023/08/05 03:36:53;;;;;;;7.85;3.00;;;15.90;99.90;;;;;;4068365;29;20083;-53
2023/08/05 03:38:56;;;;;;;6.13;3.05;;;15.90;99.90;;;;;;4069151;29;20052;-55
2023/08/05 03:41:01;;;;;;;7.15;3.80;;;15.90;99.90;;;;;;4068528;29;20047;-54
2023/08/05 03:43:03;;;;;;;6.40;3.90;;;15.90;99.90;;;;;;4068944;29;20051;-55
2023/08/05 03:45:07;;;;;;;7.20;3.53;;;16.00;99.90;;;;;;4067650;29;20052;-54
2023/08/05 03:47:09;;;;;;;6.43;3.20;;;15.90;99.90;;;;;;4067668;29;20060;-55
2023/08/05 03:49:11;;;;;;;4.68;2.90;;;15.90;99.90;;;;;;4068749;29;20056;-54
2023/08/05 03:51:14;;;;;;;8.15;2.85;;;16.00;99.90;;;;;;4068884;29;20079;-55
2023/08/05 03:53:17;;;;;;;6.75;3.08;;;15.90;99.90;;;;;;4068949;29;20120;-55
2023/08/05 03:55:19;;;;;;;6.88;2.95;;;16.00;99.90;;;;;;4068952;29;20048;-58
2023/08/05 03:57:21;;;;;;;9.18;2.97;;;15.90;99.90;;;;;;4070008;29;20048;-54
2023/08/05 03:59:24;;;;;;;3.58;2.40;;;16.00;99.90;;;;;;4068267;29;20082;-55
2023/08/05 04:01:26;;;;;;;8.00;3.10;;;16.00;99.90;;;;;;4068973;29;20056;-55
2023/08/05 04:03:30;;;;;;;6.88;3.22;;;16.00;99.90;;;;;;4067965;29;20059;-54
2023/08/05 04:05:33;;;;;;;9.10;3.83;;;16.00;99.90;;;;;;4068555;29;20060;-55
2023/08/05 04:07:35;;;;;;;7.05;3.05;;;16.00;99.90;;;;;;4068053;29;20143;-54
2023/08/05 04:09:39;;;;;;;7.78;3.20;;;15.90;99.90;;;;;;4068111;29;20048;-55
2023/08/05 04:11:41;;;;;;;7.82;2.90;;;15.90;99.90;;;;;;4068553;29;20044;-54
2023/08/05 04:13:45;;;;;;;10.00;2.85;;;15.90;99.90;;;;;;4068449;29;20044;-55
2023/08/05 04:15:49;;;;;;;7.45;3.05;;;15.90;99.90;;;;;;4068109;29;20409;-56
2023/08/05 04:17:53;;;;;;;7.25;2.65;;;15.90;99.90;;;;;;4068457;29;20048;-55
2023/08/05 04:19:56;;;;;;;7.35;2.33;;;15.90;99.90;;;;;;4068393;29;20048;-55
2023/08/05 04:22:00;;;;;;;7.60;2.72;;;16.00;99.90;;;;;;4068432;29;20048;-55
2023/08/05 04:24:02;;;;;;;6.90;2.90;;;16.00;99.90;;;;;;4066972;29;20048;-55
2023/08/05 04:26:05;;;;;;;6.32;2.50;;;15.90;99.90;;;;;;4067770;29;20056;-55
2023/08/05 04:28:08;;;;;;;7.45;2.47;;;16.00;99.90;;;;;;4068273;29;20044;-54
2023/08/05 04:30:11;;;;;;;6.63;2.90;;;16.00;99.90;;;;;;4068284;29;20052;-56
2023/08/05 04:32:13;;;;;;;7.43;2.80;;;16.00;99.90;;;;;;4068325;29;20091;-54
2023/08/05 04:34:15;;;;;;;6.78;2.85;;;16.00;99.90;;;;;;4068321;29;20060;-55
2023/08/05 04:36:18;;;;;;;4.30;2.00;;;16.00;99.90;;;;;;4067773;29;20052;-54
2023/08/05 04:38:20;;;;;;;8.68;3.38;;;16.00;99.90;;;;;;4067747;29;20060;-54
2023/08/05 04:40:23;;;;;;;5.15;2.80;;;15.90;99.90;;;;;;4068281;29;20084;-55
2023/08/05 04:42:26;;;;;;;6.88;2.45;;;16.00;99.90;;;;;;4068329;29;20058;-55
2023/08/05 04:44:28;;;;;;;5.55;2.53;;;16.00;99.90;;;;;;4068195;29;20127;-55
2023/08/05 04:46:30;;;;;;;7.75;2.60;;;16.10;99.90;;;;;;4066328;29;20044;-54
2023/08/05 04:48:32;;;;;;;5.88;2.17;;;16.10;99.90;;;;;;4068054;29;20052;-55
2023/08/05 04:50:36;;;;;;;8.88;2.58;;;16.20;99.90;;;;;;4068363;29;20049;-54
2023/08/05 04:52:39;;;;;;;6.38;2.47;;;16.10;99.90;;;;;;4067659;29;20103;-54
2023/08/05 04:54:46;;;;;;;9.23;3.10;;;16.20;99.90;;;;;;4068185;29;20048;-54
2023/08/05 04:56:48;;;;;;;7.50;2.70;;;16.10;99.90;;;;;;4067339;29;20135;-55
2023/08/05 04:58:52;;;;;;;4.85;2.30;;;16.20;99.90;;;;;;4068701;29;20075;-55
2023/08/05 05:00:55;;;;;;;8.32;2.53;;;16.10;99.90;;;;;;4071468;29;20477;-55
2023/08/05 05:02:57;;;;;;;7.22;2.65;;;16.10;99.90;;;;;;4071237;29;20072;-55
2023/08/05 05:05:00;;;;;;;6.80;3.00;;;16.10;99.90;;;;;;4071398;29;20050;-55
2023/08/05 05:07:03;;;;;;;8.50;3.03;;;16.10;99.90;;;;;;4070058;29;20044;-55
2023/08/05 05:09:05;;;;;;;4.63;2.40;;;16.10;99.90;;;;;;4071022;29;20048;-55
2023/08/05 05:11:09;;;;;;;10.32;2.72;;;16.10;99.90;;;;;;4070895;29;20074;-55
2023/08/05 05:13:11;;;;;;;;;;;16.10;99.90;;;;;;4071857;29;20103;-55
2023/08/05 05:15:15;;;;;;;7.43;2.50;;;16.10;99.90;;;;;;4071064;29;19923;-55
2023/08/05 05:17:17;;;;;;;7.47;2.85;;;16.00;99.90;;;;;;4070429;29;20092;-55
2023/08/05 05:19:19;;;;;;;5.00;2.70;;;16.00;99.90;;;;;;4071212;29;20048;-54
2023/08/05 05:21:21;;;;;;;5.47;2.63;;;16.00;99.90;;;;;;4070562;29;20051;-55
2023/08/05 05:23:23;;;;;;;7.45;2.70;;;16.00;99.90;;;;;;4071251;29;20048;-54
2023/08/05 05:25:26;;;;;;;6.72;2.30;;;16.10;99.90;;;;;;4071208;29;20079;-55
2023/08/05 05:27:28;;;;;;;8.85;2.53;;;16.10;99.90;;;;;;4070800;29;20052;-54
2023/08/05 05:29:30;;;;;;;5.72;2.30;;;16.20;99.90;;;;;;4071313;29;20050;-55
2023/08/05 05:31:33;;;;;;;6.05;2.17;;;16.20;99.90;;;;;;4071197;29;20048;-60
2023/08/05 05:33:36;;;;;;;4.70;2.70;;;16.30;99.90;;;;;;4071088;29;20052;-55
2023/08/05 05:35:38;;;;;;;6.80;2.50;;;16.40;99.90;;;;;;4070760;29;20052;-56
2023/08/05 05:37:40;;;;;;;8.75;2.67;;;16.40;99.90;;;;;;4070263;29;20087;-54
2023/08/05 05:39:42;;;;;;;8.77;2.63;;;16.50;99.90;;;;;;4071187;29;20348;-57
2023/08/05 05:41:44;;;;;;;6.53;2.58;;;16.50;99.90;;;;;;4070911;29;20076;-55
2023/08/05 05:43:46;;;;;;;6.75;2.42;;;16.50;99.90;;;;;;4073392;29;20091;-55
2023/08/05 05:45:52;;;;;;;3.83;2.10;;;16.60;99.90;;;;;;4070391;29;20475;-55
2023/08/05 05:47:55;;;;;;;5.07;2.30;;;16.70;99.90;;;;;;4070694;29;20050;-55
2023/08/05 05:49:58;;;;;;;8.38;3.03;;;16.70;99.90;;;;;;4071038;29;20063;-54
2023/08/05 05:52:00;;;;;;;7.32;2.40;;;16.80;99.90;;;;;;4069750;29;20079;-55
2023/08/05 05:54:02;;;;;;;7.82;2.47;;;16.80;99.90;;;;;;4070657;29;20048;-54
2023/08/05 05:56:05;;;;;;;7.63;2.83;;;16.70;99.90;;;;;;4070568;29;20399;-55
2023/08/05 05:58:07;;;;;;;7.30;2.35;;;16.80;99.90;;;;;;4070073;29;20048;-55
2023/08/05 06:00:09;;;;;;;8.07;2.63;;;16.80;99.90;;;;;;4070737;29;20135;-52
2023/08/05 06:02:12;;;;;;;7.03;2.88;;;16.90;99.90;;;;;;4070461;29;20052;-53
2023/08/05 06:04:15;;;;;;;9.48;2.53;;;16.80;99.90;;;;;;4070470;29;20131;-52
2023/08/05 06:06:17;;;;;;;8.80;2.60;;;16.90;99.90;;;;;;4069620;29;20060;-54
2023/08/05 06:08:19;;;;;;;7.57;2.40;;;16.90;99.90;;;;;;4070330;29;20048;-52
2023/08/05 06:10:21;;;;;;;10.10;2.67;;;16.90;99.90;;;;;;4069773;29;20056;-52
2023/08/05 06:12:27;;;;;;;6.55;2.47;;;17.00;99.90;;;;;;4070496;29;20056;-53
2023/08/05 06:14:30;;;;;;;9.48;2.78;;;17.00;99.90;;;;;;4070479;29;20155;-53
2023/08/05 06:16:32;;;;;;;6.88;2.58;;;17.00;99.90;;;;;;4069881;29;20263;-53
2023/08/05 06:18:37;;;;;;;4.85;2.72;;;17.00;99.90;;;;;;4070952;29;20214;-53
2023/08/05 06:20:41;;;;;;;5.35;2.60;;;16.90;99.90;;;;;;4070296;29;20107;-52
2023/08/05 06:22:44;;;;;;;6.25;2.58;;;16.90;99.90;;;;;;4069479;29;20458;-60
2023/08/05 06:24:50;;;;;;;9.23;2.58;;;16.90;99.90;;;;;;4071209;29;20060;-54
2023/08/05 06:26:52;;;;;;;5.70;2.65;;;16.90;99.90;;;;;;4069636;29;20119;-53
2023/08/05 06:28:55;;;;;;;6.93;2.17;;;16.80;99.90;;;;;;4085043;29;20086;-53
2023/08/05 06:30:58;;;;;;;5.65;2.10;;;16.80;99.90;;;;;;4068764;29;20419;-52
2023/08/05 06:33:01;;;;;;;7.18;2.88;;;16.90;99.90;;;;;;4068960;29;20082;-52
2023/08/05 06:35:05;;;;;;;5.75;2.40;;;16.90;99.90;;;;;;4070422;29;20063;-53
2023/08/05 06:37:08;;;;;;;7.78;2.10;;;16.90;99.90;;;;;;4069482;29;20075;-53
2023/08/05 06:39:10;;;;;;;6.85;2.05;;;16.80;99.90;;;;;;4069961;29;20176;-52
2023/08/05 06:41:13;;;;;;;5.35;1.95;;;16.90;99.90;;;;;;4070166;29;20080;-53
2023/08/05 06:43:15;;;;;;;5.50;2.13;;;17.00;99.90;;;;;;4070085;29;20052;-53
2023/08/05 06:45:17;;;;;;;6.93;2.53;;;17.00;99.90;;;;;;4069982;29;20060;-53
2023/08/05 06:47:19;;;;;;;8.43;2.45;;;17.00;99.90;;;;;;4069265;29;20135;-52
2023/08/05 06:49:22;;;;;;;7.13;1.85;;;17.10;99.90;;;;;;4069651;29;20048;-53
2023/08/05 06:51:24;;;;;;;6.63;2.17;;;17.20;99.90;;;;;;4069938;29;20510;-53
2023/08/05 06:53:28;;;;;;;5.07;2.13;;;17.30;99.90;;;;;;4069811;29;20079;-52
2023/08/05 06:55:30;;;;;;;5.25;2.10;;;17.30;99.90;;;;;;4069592;29;20051;-53
2023/08/05 06:57:33;;;;;;;3.25;1.65;;;17.30;99.90;;;;;;4068903;29;20056;-52
2023/08/05 06:59:34;;;;;;;7.03;2.05;;;17.30;99.90;;;;;;4069611;29;20058;-53
2023/08/05 07:01:36;;;;;;;9.10;2.38;;;17.40;99.90;;;;;;4069947;29;20127;-53
2023/08/05 07:03:39;;;;;;;7.40;2.10;;;17.40;99.90;;;;;;4069415;29;20072;-53
2023/08/05 07:05:41;;;;;;;9.80;2.08;;;17.40;99.90;;;;;;4069695;29;20174;-53
2023/08/05 07:07:44;;;;;;;7.38;2.05;;;17.50;99.90;;;;;;4068861;29;20056;-52
2023/08/05 07:09:48;;;;;;;4.90;1.88;;;17.50;99.90;;;;;;4069704;29;20048;-53
2023/08/05 07:11:50;;;;;;;5.00;1.90;;;17.40;99.90;;;;;;4069884;29;20059;-53
2023/08/05 07:13:55;;;;;;;5.28;1.83;;;17.40;99.90;;;;;;4070162;29;20131;-53
2023/08/05 07:16:01;;;;;;;6.60;1.60;;;17.60;99.90;;;;;;4070004;29;20054;-53
2023/08/05 07:18:04;;;;;;;6.25;1.75;;;17.80;99.90;;;;;;4069060;29;20052;-54
2023/08/05 07:20:08;;;;;;;4.70;2.10;;;17.80;99.90;;;;;;4070126;29;20462;-56
2023/08/05 07:22:10;;;;;;;7.05;1.90;;;17.80;99.90;;;;;;4069411;29;20406;-52
2023/08/05 07:24:12;;;;;;;5.72;2.15;;;17.90;99.90;;;;;;4069857;29;20059;-53
2023/08/05 07:26:18;;;;;;;5.20;1.77;;;17.90;99.90;;;;;;4070080;29;20048;-52
2023/08/05 07:28:21;;;;;;;3.45;1.58;;;17.90;99.90;;;;;;4069429;29;20052;-57
2023/08/05 07:30:23;;;;;;;8.60;2.20;;;17.90;99.90;;;;;;4070672;29;20076;-53
2023/08/05 07:32:26;;;;;;;4.35;1.75;;;18.00;99.90;;;;;;4070113;29;20055;-54
2023/08/05 07:34:31;;;;;;;6.05;1.83;;;18.10;99.90;;;;;;4070268;29;20052;-52
2023/08/05 07:36:33;;;;;;;4.32;1.90;;;18.00;99.90;;;;;;4069251;29;20474;-53
2023/08/05 07:38:38;;;;;;;3.22;1.40;;;18.10;99.90;;;;;;4069239;29;20076;-53
2023/08/05 07:40:46;;;;;;;6.85;1.95;;;18.10;99.90;;;;;;4083162;29;20048;-53
2023/08/05 07:42:50;;;;;;;4.57;1.50;;;18.00;99.90;;;;;;4068996;29;20096;-55
2023/08/05 07:44:53;;;;;;;2.80;1.73;;;18.00;99.90;;;;;;4069160;29;20048;-53
2023/08/05 07:46:55;;;;;;;5.05;1.15;;;17.90;99.90;;;;;;4068349;29;20056;-52
2023/08/05 07:48:58;;;;;;;4.80;1.45;;;17.90;99.90;;;;;;4069086;29;20051;-52
2023/08/05 07:51:00;;;;;;;6.38;2.08;;;17.90;99.90;;;;;;4069048;29;20090;-52
2023/08/05 07:53:05;;;;;;;5.15;1.60;;;17.90;99.90;;;;;;4068909;29;20055;-52
2023/08/05 07:55:08;;;;;;;6.32;1.63;;;17.90;99.90;;;;;;4068922;29;20055;-52
2023/08/05 07:57:10;;;;;;;4.10;1.50;;;18.00;99.90;;;;;;4068059;29;20112;-52
2023/08/05 07:59:13;;;;;;;4.68;2.03;;;18.10;99.90;;;;;;4067713;29;20135;-52
2023/08/05 08:01:19;;;;;;;4.95;1.52;;;18.20;99.90;;;;;;4068363;29;20064;-54
2023/08/05 08:03:26;;;;;;;4.75;2.03;;;18.20;99.90;;;;;;4068726;29;20075;-54
2023/08/05 08:05:29;;;;;;;4.45;1.60;;;18.30;99.90;;;;;;4068822;29;20104;-55
2023/08/05 08:07:31;;;;;;;5.05;1.63;;;18.20;99.90;;;;;;4068036;29;20051;-55
2023/08/05 08:09:33;;;;;;;5.65;1.92;;;18.20;99.90;;;;;;4068656;29;20139;-55
2023/08/05 08:11:35;;;;;;;2.25;1.25;;;18.20;99.90;;;;;;4068632;29;20115;-55
2023/08/05 08:13:38;;;;;;;3.15;1.50;;;18.30;99.90;;;;;;4068779;29;20112;-54
2023/08/05 08:15:41;;;;;;;4.35;1.33;;;18.30;99.90;;;;;;4068312;29;20529;-54
2023/08/05 08:17:43;;;;;;;2.97;1.60;;;18.40;99.90;;;;;;4067954;29;20048;-54
2023/08/05 08:19:49;;;;;;;3.83;1.67;;;18.40;99.90;;;;;;4068770;29;20107;-54
2023/08/05 08:21:51;;;;;;;3.50;1.27;;;18.40;99.90;;;;;;4068361;29;20052;-55
2023/08/05 08:23:54;;;;;;;3.55;1.50;;;18.30;99.90;;;;;;4068789;29;20363;-61
2023/08/05 08:25:57;;;;;;;3.65;1.33;;;18.30;99.90;;;;;;4068434;29;20462;-55
2023/08/05 08:27:59;;;;;;;3.20;1.58;;;18.30;99.90;;;;;;4067865;29;20048;-58
2023/08/05 08:30:02;;;;;;;6.57;1.40;;;18.30;99.90;;;;;;4068039;29;20055;-54
2023/08/05 08:32:07;;;;;;;4.18;1.60;;;18.30;99.90;;;;;;4068645;29;20052;-54
2023/08/05 08:34:11;;;;;;;6.03;1.67;;;18.20;99.90;;;;;;4068351;29;20060;-54
2023/08/05 08:36:13;;;;;;;4.90;1.30;;;18.10;99.90;;;;;;4068811;29;20052;-53
2023/08/05 08:38:16;;;;;;;4.45;1.77;;;18.20;99.90;;;;;;4067554;29;20052;-55
2023/08/05 08:40:20;;;;;;;5.75;1.80;;;18.20;99.90;;;;;;4068560;29;20131;-55
2023/08/05 08:42:25;;;;;;;5.05;1.63;;;18.30;99.90;;;;;;4068439;29;20048;-55
2023/08/05 08:44:27;;;;;;;5.15;1.50;;;18.10;99.90;;;;;;4068331;29;20052;-54
2023/08/05 08:46:30;;;;;;;3.13;1.52;;;18.00;99.90;;;;;;4068344;29;20056;-54
2023/08/05 08:48:37;;;;;;;3.30;1.30;;;18.00;99.90;;;;;;4067720;29;20099;-53
2023/08/05 08:50:40;;;;;;;6.10;2.08;;;17.90;99.90;;;;;;4068228;29;20048;-55
2023/08/05 08:52:44;;;;;;;3.75;1.58;;;17.90;99.90;;;;;;4068479;29;20480;-55
2023/08/05 08:54:50;;;;;;;5.15;1.83;;;17.80;99.90;;;;;;4068417;29;20558;-54
2023/08/05 08:56:53;;;;;;;4.75;2.05;;;17.80;99.90;;;;;;4067663;29;20462;-57
2023/08/05 08:58:55;;;;;;;4.90;1.50;;;17.90;99.90;;;;;;4066652;29;20479;-53
2023/08/05 09:00:58;;;;;;;5.72;2.00;;;18.00;99.90;;;;;;4067786;29;20058;-54
2023/08/05 09:03:00;;;;;;;5.45;2.03;;;18.00;99.90;;;;;;4068280;29;20056;-54
2023/08/05 09:05:05;;;;;;;7.05;1.90;;;18.00;99.90;;;;;;4068110;29;20056;-54
2023/08/05 09:07:08;;;;;;;9.43;2.28;;;18.00;99.90;;;;;;4067319;29;20056;-54
2023/08/05 09:09:10;;;;;;;6.75;2.17;;;18.10;99.90;;;;;;4068269;29;20084;-54
2023/08/05 09:11:14;;;;;;;6.47;2.00;;;18.10;99.90;;;;;;4067794;29;20509;-54
2023/08/05 09:13:17;;;;;;;7.40;2.22;;;18.20;99.90;;;;;;4057178;29;20051;-53
2023/08/05 09:15:21;;;;;;;4.75;1.80;;;18.30;99.90;;;;;;4052546;29;20128;-54
2023/08/05 09:17:23;;;;;;;6.15;1.75;;;18.30;99.90;;;;;;4052544;29;20048;-55
2023/08/05 09:19:26;;;;;;;4.68;2.03;;;18.30;99.90;;;;;;4052244;29;20148;-53
2023/08/05 09:21:29;;;;;;;6.95;1.95;;;18.50;99.90;;;;;;4052131;29;20049;-53
2023/08/05 09:23:43;;;;;;;3.90;1.52;;;18.60;99.90;;;;;;4052074;29;20052;-61
2023/08/05 09:25:47;;;;;;;7.72;2.75;;;18.50;99.90;;;;;;4052126;29;20123;-54
2023/08/05 09:27:53;;;;;;;16.88;2.53;;;18.50;99.90;;;;;;4051099;29;20302;-54
2023/08/05 09:30:13;;;;;;;339.67;269.75;;;18.50;99.90;;;;;;4050887;29;20057;-54
2023/08/05 09:32:18;;;;;;;13.00;8.57;;;18.70;99.90;;;;;;4051858;29;20053;-54
2023/08/05 09:34:34;;;;;;;9.68;4.15;;;18.70;99.90;;;;;;4048609;29;20052;-53
2023/08/05 09:36:39;;;;;;;6.57;3.30;;;18.70;99.90;;;;;;4050421;29;20048;-54
2023/08/05 09:38:43;;;;;;;10.75;3.20;;;18.70;99.90;;;;;;4050966;29;20202;-54
2023/08/05 09:40:48;;;;;;;7.50;1.90;;;18.70;99.90;;;;;;4051774;29;20480;-53
2023/08/05 09:42:51;;;;;;;5.15;2.53;;;18.70;99.90;;;;;;4051226;29;20091;-54
2023/08/05 09:44:58;;;;;;;7.88;2.80;;;18.60;99.90;;;;;;4052308;29;20048;-54
2023/08/05 09:47:02;;;;;;;7.28;2.33;;;18.60;99.90;;;;;;4054313;29;20431;-54
2023/08/05 09:49:06;;;;;;;8.32;3.55;;;18.50;99.90;;;;;;4054896;29;20053;-54
2023/08/05 09:51:13;;;;;;;8.07;3.50;;;18.40;99.90;;;;;;4054573;29;20072;-54
2023/08/05 09:53:22;;;;;;;8.60;2.47;;;18.40;99.90;;;;;;4054885;29;20052;-54
2023/08/05 09:55:25;;;;;;;5.50;2.00;;;18.40;99.90;;;;;;4052173;29;20052;-60
2023/08/05 09:57:29;;;;;;;6.07;2.70;;;18.30;99.90;;;;;;4052795;29;20048;-54
2023/08/05 09:59:32;;;;;;;5.80;2.35;;;18.20;99.90;;;;;;4054268;29;20104;-53
2023/08/05 10:01:36;;;;;;;5.68;2.33;;;18.10;99.90;;;;;;4054400;29;20045;-54
2023/08/05 10:03:39;;;;;;;5.28;2.13;;;18.00;99.90;;;;;;4053154;29;20143;-53
2023/08/05 10:05:44;;;;;;;5.10;2.30;;;17.90;99.90;;;;;;4054402;29;20044;-54
2023/08/05 10:07:52;;;;;;;5.82;2.65;;;18.00;99.90;;;;;;4053046;29;20091;-54
2023/08/05 10:10:00;;;;;;;3.92;2.28;;;18.00;99.90;;;;;;4054234;29;20045;-54
2023/08/05 10:12:04;;;;;;;5.97;2.47;;;18.00;99.90;;;;;;4049848;29;20052;-53
2023/08/05 10:14:06;;;;;;;5.93;2.30;;;18.00;99.90;;;;;;4053817;29;20052;-54
2023/08/05 10:16:10;;;;;;;5.00;1.92;;;18.00;99.90;;;;;;4072821;29;20045;-55
2023/08/05 10:18:15;;;;;;;6.95;2.35;;;17.90;99.90;;;;;;4060131;29;20059;-55
2023/08/05 10:20:17;;;;;;;4.75;1.95;;;18.00;99.90;;;;;;4058925;29;20068;-54
2023/08/05 10:22:22;;;;;;;7.97;2.50;;;18.00;99.90;;;;;;4055487;29;20079;-54
2023/08/05 10:24:24;;;;;;;8.50;3.05;;;18.10;99.90;;;;;;4059245;29;20048;-53
2023/08/05 10:26:42;;;;;;;9.95;4.70;;;18.10;99.90;;;;;;4058267;29;20108;-54
2023/08/05 10:28:44;;;;;;;105.10;79.75;;;18.30;99.90;;;;;;4053571;29;20045;-55
2023/08/05 10:30:46;;;;;;;6.50;3.85;;;18.40;99.90;;;;;;4051216;29;20163;-54
2023/08/05 10:32:55;;;;;;;10.25;4.55;;;18.50;99.90;;;;;;4051334;29;20171;-54
2023/08/05 10:35:25;;;;;;;8.95;4.40;;;18.60;99.90;;;;;;4047699;29;20547;-54
2023/08/05 10:37:47;;;;;;;7.43;3.58;;;18.70;99.90;;;;;;4051397;29;20048;-55
2023/08/05 10:39:59;;;;;;;10.73;3.63;;;18.80;99.90;;;;;;4052429;29;20060;-55
2023/08/05 10:42:32;;;;;;;10.00;5.28;;;18.80;99.90;;;;;;4051148;29;20132;-54